sensor_id;sensor_type;location;lat;lon;timestamp;P1;P2;P0
73749;PMS7003;62058;48.406;-4.514;2023-06-22T00:01:21;0.00;0.00;0.00
73749;PMS7003;62058;48.406;-4.514;2023-06-22T00:03:50;0.00;0.00;0.00
73749;PMS7003;62058;48.406;-4.514;2023-06-22T00:06:15;0.00;0.00;0.00
73749;PMS7003;62058;48.406;-4.514;2023-06-22T00:08:44;0.00;0.00;0.00
73749;PMS7003;62058;48.406;-4.514;2023-06-22T00:11:20;0.00;0.00;0.00
73749;PMS7003;62058;48.406;-4.514;2023-06-22T00:13:48;0.00;0.00;0.00
73749;PMS7003;62058;48.406;-4.514;2023-06-22T00:16:17;0.00;0.00;0.00
73749;PMS7003;62058;48.406;-4.514;2023-06-22T00:18:45;0.00;0.00;0.00
73749;PMS7003;62058;48.406;-4.514;2023-06-22T00:21:14;0.00;0.00;0.00
73749;PMS7003;62058;48.406;-4.514;2023-06-22T00:23:42;0.00;0.00;0.00
73749;PMS7003;62058;48.406;-4.514;2023-06-22T00:26:11;0.00;0.00;0.00
73749;PMS7003;62058;48.406;-4.514;2023-06-22T00:28:41;0.00;0.00;0.00
73749;PMS7003;62058;48.406;-4.514;2023-06-22T00:31:11;0.00;0.00;0.00
73749;PMS7003;62058;48.406;-4.514;2023-06-22T00:33:43;0.00;0.00;0.00
73749;PMS7003;62058;48.406;-4.514;2023-06-22T00:36:12;0.00;0.00;0.00
73749;PMS7003;62058;48.406;-4.514;2023-06-22T00:38:43;0.00;0.00;0.00
73749;PMS7003;62058;48.406;-4.514;2023-06-22T00:41:21;0.00;0.00;0.00
73749;PMS7003;62058;48.406;-4.514;2023-06-22T00:43:53;0.00;0.00;0.00
73749;PMS7003;62058;48.406;-4.514;2023-06-22T00:46:21;0.00;0.00;0.00
73749;PMS7003;62058;48.406;-4.514;2023-06-22T00:48:50;0.00;0.00;0.00
73749;PMS7003;62058;48.406;-4.514;2023-06-22T00:51:27;0.00;0.00;0.00
73749;PMS7003;62058;48.406;-4.514;2023-06-22T00:53:55;0.00;0.00;0.00
73749;PMS7003;62058;48.406;-4.514;2023-06-22T00:56:27;0.00;0.00;0.00
73749;PMS7003;62058;48.406;-4.514;2023-06-22T00:58:58;0.00;0.00;0.00
73749;PMS7003;62058;48.406;-4.514;2023-06-22T01:01:27;0.00;0.00;0.00
73749;PMS7003;62058;48.406;-4.514;2023-06-22T01:03:53;0.00;0.00;0.00
73749;PMS7003;62058;48.406;-4.514;2023-06-22T01:06:25;0.00;0.00;0.00
73749;PMS7003;62058;48.406;-4.514;2023-06-22T01:09:07;0.00;0.00;0.00
73749;PMS7003;62058;48.406;-4.514;2023-06-22T01:11:45;0.00;0.00;0.00
73749;PMS7003;62058;48.406;-4.514;2023-06-22T01:14:21;0.00;0.00;0.00
73749;PMS7003;62058;48.406;-4.514;2023-06-22T01:16:55;0.00;0.00;0.00
73749;PMS7003;62058;48.406;-4.514;2023-06-22T01:19:35;0.00;0.00;0.00
73749;PMS7003;62058;48.406;-4.514;2023-06-22T01:22:07;0.00;0.00;0.00
73749;PMS7003;62058;48.406;-4.514;2023-06-22T01:30:30;0.00;0.00;0.00
73749;PMS7003;62058;48.406;-4.514;2023-06-22T01:33:01;0.00;0.00;0.00
73749;PMS7003;62058;48.406;-4.514;2023-06-22T01:35:29;0.00;0.00;0.00
73749;PMS7003;62058;48.406;-4.514;2023-06-22T01:37:57;0.00;0.00;0.00
73749;PMS7003;62058;48.406;-4.514;2023-06-22T01:40:24;0.00;0.00;0.00
73749;PMS7003;62058;48.406;-4.514;2023-06-22T01:42:50;0.00;0.00;0.00
73749;PMS7003;62058;48.406;-4.514;2023-06-22T01:45:22;0.00;0.00;0.00
73749;PMS7003;62058;48.406;-4.514;2023-06-22T01:47:52;0.00;0.00;0.00
73749;PMS7003;62058;48.406;-4.514;2023-06-22T01:50:20;0.00;0.00;0.00
73749;PMS7003;62058;48.406;-4.514;2023-06-22T01:52:52;0.00;0.00;0.00
73749;PMS7003;62058;48.406;-4.514;2023-06-22T01:55:20;0.00;0.00;0.00
73749;PMS7003;62058;48.406;-4.514;2023-06-22T01:57:49;0.00;0.00;0.00
73749;PMS7003;62058;48.406;-4.514;2023-06-22T02:00:17;0.00;0.00;0.00
73749;PMS7003;62058;48.406;-4.514;2023-06-22T02:03:19;0.00;0.00;0.00
73749;PMS7003;62058;48.406;-4.514;2023-06-22T02:08:48;0.00;0.00;0.00
73749;PMS7003;62058;48.406;-4.514;2023-06-22T02:11:17;0.00;0.00;0.00
73749;PMS7003;62058;48.406;-4.514;2023-06-22T02:13:47;0.00;0.00;0.00
73749;PMS7003;62058;48.406;-4.514;2023-06-22T02:16:14;0.00;0.00;0.00
73749;PMS7003;62058;48.406;-4.514;2023-06-22T02:18:49;0.00;0.00;0.00
73749;PMS7003;62058;48.406;-4.514;2023-06-22T02:21:18;0.00;0.00;0.00
73749;PMS7003;62058;48.406;-4.514;2023-06-22T02:23:44;0.00;0.00;0.00
73749;PMS7003;62058;48.406;-4.514;2023-06-22T02:26:12;0.00;0.00;0.00
73749;PMS7003;62058;48.406;-4.514;2023-06-22T02:28:47;0.00;0.00;0.00
73749;PMS7003;62058;48.406;-4.514;2023-06-22T02:31:16;0.00;0.00;0.00
73749;PMS7003;62058;48.406;-4.514;2023-06-22T02:33:42;0.00;0.00;0.00
73749;PMS7003;62058;48.406;-4.514;2023-06-22T02:36:23;0.00;0.00;0.00
73749;PMS7003;62058;48.406;-4.514;2023-06-22T02:38:55;0.00;0.00;0.00
73749;PMS7003;62058;48.406;-4.514;2023-06-22T02:41:27;0.00;0.00;0.00
73749;PMS7003;62058;48.406;-4.514;2023-06-22T02:43:53;0.00;0.00;0.00
73749;PMS7003;62058;48.406;-4.514;2023-06-22T02:46:21;0.00;0.00;0.00
73749;PMS7003;62058;48.406;-4.514;2023-06-22T02:48:52;0.00;0.00;0.00
73749;PMS7003;62058;48.406;-4.514;2023-06-22T02:51:21;0.00;0.00;0.00
73749;PMS7003;62058;48.406;-4.514;2023-06-22T02:53:49;0.00;0.00;0.00
73749;PMS7003;62058;48.406;-4.514;2023-06-22T02:56:17;0.00;0.00;0.00
73749;PMS7003;62058;48.406;-4.514;2023-06-22T02:58:43;0.00;0.00;0.00
73749;PMS7003;62058;48.406;-4.514;2023-06-22T03:01:10;0.00;0.00;0.00
73749;PMS7003;62058;48.406;-4.514;2023-06-22T03:03:38;0.00;0.00;0.00
73749;PMS7003;62058;48.406;-4.514;2023-06-22T03:06:20;0.00;0.00;0.00
73749;PMS7003;62058;48.406;-4.514;2023-06-22T03:09:00;0.00;0.00;0.00
73749;PMS7003;62058;48.406;-4.514;2023-06-22T03:11:29;0.00;0.00;0.00
73749;PMS7003;62058;48.406;-4.514;2023-06-22T03:14:02;0.00;0.00;0.00
73749;PMS7003;62058;48.406;-4.514;2023-06-22T03:16:28;0.00;0.00;0.00
73749;PMS7003;62058;48.406;-4.514;2023-06-22T03:18:56;0.00;0.00;0.00
73749;PMS7003;62058;48.406;-4.514;2023-06-22T03:21:27;0.00;0.00;0.00
73749;PMS7003;62058;48.406;-4.514;2023-06-22T03:24:01;0.00;0.00;0.00
73749;PMS7003;62058;48.406;-4.514;2023-06-22T03:26:27;0.00;0.00;0.00
73749;PMS7003;62058;48.406;-4.514;2023-06-22T03:28:53;0.00;0.00;0.00
73749;PMS7003;62058;48.406;-4.514;2023-06-22T03:31:24;0.00;0.00;0.00
73749;PMS7003;62058;48.406;-4.514;2023-06-22T03:34:02;0.00;0.00;0.00
73749;PMS7003;62058;48.406;-4.514;2023-06-22T03:36:30;0.00;0.00;0.00
73749;PMS7003;62058;48.406;-4.514;2023-06-22T03:39:05;0.00;0.00;0.00
73749;PMS7003;62058;48.406;-4.514;2023-06-22T03:41:31;0.00;0.00;0.00
73749;PMS7003;62058;48.406;-4.514;2023-06-22T03:44:03;0.00;0.00;0.00
73749;PMS7003;62058;48.406;-4.514;2023-06-22T03:46:35;0.00;0.00;0.00
73749;PMS7003;62058;48.406;-4.514;2023-06-22T03:49:08;0.00;0.00;0.00
73749;PMS7003;62058;48.406;-4.514;2023-06-22T03:51:42;0.00;0.00;0.00
73749;PMS7003;62058;48.406;-4.514;2023-06-22T03:54:19;0.00;0.00;0.00
73749;PMS7003;62058;48.406;-4.514;2023-06-22T03:56:53;0.00;0.00;0.00
73749;PMS7003;62058;48.406;-4.514;2023-06-22T03:59:24;0.00;0.00;0.00
73749;PMS7003;62058;48.406;-4.514;2023-06-22T04:01:50;0.00;0.00;0.00
73749;PMS7003;62058;48.406;-4.514;2023-06-22T04:04:19;0.00;0.00;0.00
73749;PMS7003;62058;48.406;-4.514;2023-06-22T04:06:50;0.00;0.00;0.00
73749;PMS7003;62058;48.406;-4.514;2023-06-22T04:09:21;0.00;0.00;0.00
73749;PMS7003;62058;48.406;-4.514;2023-06-22T04:11:47;0.00;0.00;0.00
73749;PMS7003;62058;48.406;-4.514;2023-06-22T04:14:16;0.00;0.00;0.00
73749;PMS7003;62058;48.406;-4.514;2023-06-22T04:16:44;0.00;0.00;0.00
73749;PMS7003;62058;48.406;-4.514;2023-06-22T04:19:10;0.00;0.00;0.00
73749;PMS7003;62058;48.406;-4.514;2023-06-22T04:21:44;0.00;0.00;0.00
73749;PMS7003;62058;48.406;-4.514;2023-06-22T04:24:22;0.00;0.00;0.00
73749;PMS7003;62058;48.406;-4.514;2023-06-22T04:27:09;0.00;0.00;0.00
73749;PMS7003;62058;48.406;-4.514;2023-06-22T04:29:42;0.00;0.00;0.00
73749;PMS7003;62058;48.406;-4.514;2023-06-22T04:32:14;0.00;0.00;0.00
73749;PMS7003;62058;48.406;-4.514;2023-06-22T04:34:47;0.00;0.00;0.00
73749;PMS7003;62058;48.406;-4.514;2023-06-22T04:37:15;0.00;0.00;0.00
73749;PMS7003;62058;48.406;-4.514;2023-06-22T04:39:42;0.00;0.00;0.00
73749;PMS7003;62058;48.406;-4.514;2023-06-22T04:51:28;0.00;0.00;0.00
73749;PMS7003;62058;48.406;-4.514;2023-06-22T04:54:05;0.00;0.00;0.00
73749;PMS7003;62058;48.406;-4.514;2023-06-22T05:03:35;0.00;0.00;0.00
73749;PMS7003;62058;48.406;-4.514;2023-06-22T05:06:08;0.00;0.00;0.00
73749;PMS7003;62058;48.406;-4.514;2023-06-22T05:08:34;0.00;0.00;0.00
73749;PMS7003;62058;48.406;-4.514;2023-06-22T05:13:54;0.00;0.00;0.00
73749;PMS7003;62058;48.406;-4.514;2023-06-22T05:16:21;0.00;0.00;0.00
73749;PMS7003;62058;48.406;-4.514;2023-06-22T05:18:53;0.00;0.00;0.00
73749;PMS7003;62058;48.406;-4.514;2023-06-22T05:21:30;0.00;0.00;0.00
73749;PMS7003;62058;48.406;-4.514;2023-06-22T05:37:36;0.00;0.00;0.00
73749;PMS7003;62058;48.406;-4.514;2023-06-22T05:45:28;0.00;0.00;0.00
73749;PMS7003;62058;48.406;-4.514;2023-06-22T05:48:02;0.00;0.00;0.00
73749;PMS7003;62058;48.406;-4.514;2023-06-22T05:56:12;0.00;0.00;0.00
73749;PMS7003;62058;48.406;-4.514;2023-06-22T05:58:39;0.00;0.00;0.00
73749;PMS7003;62058;48.406;-4.514;2023-06-22T06:01:05;0.00;0.00;0.00
73749;PMS7003;62058;48.406;-4.514;2023-06-22T06:03:30;0.00;0.00;0.00
73749;PMS7003;62058;48.406;-4.514;2023-06-22T06:05:55;0.00;0.00;0.00
73749;PMS7003;62058;48.406;-4.514;2023-06-22T06:08:21;0.00;0.00;0.00
73749;PMS7003;62058;48.406;-4.514;2023-06-22T06:10:46;0.00;0.00;0.00
73749;PMS7003;62058;48.406;-4.514;2023-06-22T06:13:12;0.00;0.00;0.00
73749;PMS7003;62058;48.406;-4.514;2023-06-22T06:15:37;0.00;0.00;0.00
73749;PMS7003;62058;48.406;-4.514;2023-06-22T06:18:03;0.00;0.00;0.00
73749;PMS7003;62058;48.406;-4.514;2023-06-22T06:20:30;0.00;0.00;0.00
73749;PMS7003;62058;48.406;-4.514;2023-06-22T06:22:56;0.00;0.00;0.00
73749;PMS7003;62058;48.406;-4.514;2023-06-22T06:25:22;0.00;0.00;0.00
73749;PMS7003;62058;48.406;-4.514;2023-06-22T06:27:48;0.00;0.00;0.00
73749;PMS7003;62058;48.406;-4.514;2023-06-22T06:30:17;0.00;0.00;0.00
73749;PMS7003;62058;48.406;-4.514;2023-06-22T06:32:43;0.00;0.00;0.00
73749;PMS7003;62058;48.406;-4.514;2023-06-22T06:35:10;0.00;0.00;0.00
73749;PMS7003;62058;48.406;-4.514;2023-06-22T06:37:37;0.00;0.00;0.00
73749;PMS7003;62058;48.406;-4.514;2023-06-22T06:40:07;0.00;0.00;0.00
73749;PMS7003;62058;48.406;-4.514;2023-06-22T06:42:35;0.00;0.00;0.00
73749;PMS7003;62058;48.406;-4.514;2023-06-22T06:45:05;0.00;0.00;0.00
73749;PMS7003;62058;48.406;-4.514;2023-06-22T06:47:31;0.00;0.00;0.00
73749;PMS7003;62058;48.406;-4.514;2023-06-22T06:49:57;0.00;0.00;0.00
73749;PMS7003;62058;48.406;-4.514;2023-06-22T06:52:22;0.00;0.00;0.00
73749;PMS7003;62058;48.406;-4.514;2023-06-22T06:54:48;0.00;0.00;0.00
73749;PMS7003;62058;48.406;-4.514;2023-06-22T06:57:13;0.00;0.00;0.00
73749;PMS7003;62058;48.406;-4.514;2023-06-22T06:59:40;0.00;0.00;0.00
73749;PMS7003;62058;48.406;-4.514;2023-06-22T07:02:06;0.00;0.00;0.00
73749;PMS7003;62058;48.406;-4.514;2023-06-22T07:04:31;0.00;0.00;0.00
73749;PMS7003;62058;48.406;-4.514;2023-06-22T07:06:58;0.00;0.00;0.00
73749;PMS7003;62058;48.406;-4.514;2023-06-22T07:09:24;0.00;0.00;0.00
73749;PMS7003;62058;48.406;-4.514;2023-06-22T07:11:49;0.00;0.00;0.00
73749;PMS7003;62058;48.406;-4.514;2023-06-22T07:14:14;0.00;0.00;0.00
73749;PMS7003;62058;48.406;-4.514;2023-06-22T07:16:40;0.00;0.00;0.00
73749;PMS7003;62058;48.406;-4.514;2023-06-22T07:19:05;0.00;0.00;0.00
73749;PMS7003;62058;48.406;-4.514;2023-06-22T07:21:32;0.00;0.00;0.00
73749;PMS7003;62058;48.406;-4.514;2023-06-22T07:23:57;0.00;0.00;0.00
73749;PMS7003;62058;48.406;-4.514;2023-06-22T07:26:23;0.00;0.00;0.00
73749;PMS7003;62058;48.406;-4.514;2023-06-22T07:28:48;0.00;0.00;0.00
73749;PMS7003;62058;48.406;-4.514;2023-06-22T07:31:15;0.00;0.00;0.00
73749;PMS7003;62058;48.406;-4.514;2023-06-22T07:33:40;0.00;0.00;0.00
73749;PMS7003;62058;48.406;-4.514;2023-06-22T07:36:06;0.00;0.00;0.00
73749;PMS7003;62058;48.406;-4.514;2023-06-22T07:38:33;0.00;0.00;0.00
73749;PMS7003;62058;48.406;-4.514;2023-06-22T07:40:59;0.00;0.00;0.00
73749;PMS7003;62058;48.406;-4.514;2023-06-22T07:43:25;0.00;0.00;0.00
73749;PMS7003;62058;48.406;-4.514;2023-06-22T07:45:50;0.00;0.00;0.00
73749;PMS7003;62058;48.406;-4.514;2023-06-22T07:48:22;0.00;0.00;0.00
73749;PMS7003;62058;48.406;-4.514;2023-06-22T07:50:48;0.00;0.00;0.00
73749;PMS7003;62058;48.406;-4.514;2023-06-22T07:53:14;0.00;0.00;0.00
73749;PMS7003;62058;48.406;-4.514;2023-06-22T07:55:39;0.00;0.00;0.00
73749;PMS7003;62058;48.406;-4.514;2023-06-22T07:58:04;0.00;0.00;0.00
73749;PMS7003;62058;48.406;-4.514;2023-06-22T08:00:30;0.00;0.00;0.00
73749;PMS7003;62058;48.406;-4.514;2023-06-22T08:02:55;0.00;0.00;0.00
73749;PMS7003;62058;48.406;-4.514;2023-06-22T08:05:21;0.00;0.00;0.00
73749;PMS7003;62058;48.406;-4.514;2023-06-22T08:07:46;0.00;0.00;0.00
73749;PMS7003;62058;48.406;-4.514;2023-06-22T08:10:12;0.00;0.00;0.00
73749;PMS7003;62058;48.406;-4.514;2023-06-22T08:12:38;0.00;0.00;0.00
73749;PMS7003;62058;48.406;-4.514;2023-06-22T08:15:05;0.00;0.00;0.00
73749;PMS7003;62058;48.406;-4.514;2023-06-22T08:17:31;0.00;0.00;0.00
73749;PMS7003;62058;48.406;-4.514;2023-06-22T08:19:56;0.00;0.00;0.00
73749;PMS7003;62058;48.406;-4.514;2023-06-22T08:22:22;0.00;0.00;0.00
73749;PMS7003;62058;48.406;-4.514;2023-06-22T08:24:47;0.00;0.00;0.00
73749;PMS7003;62058;48.406;-4.514;2023-06-22T08:27:13;0.00;0.00;0.00
73749;PMS7003;62058;48.406;-4.514;2023-06-22T08:29:39;0.00;0.00;0.00
73749;PMS7003;62058;48.406;-4.514;2023-06-22T08:32:07;0.00;0.00;0.00
73749;PMS7003;62058;48.406;-4.514;2023-06-22T08:34:34;0.00;0.00;0.00
73749;PMS7003;62058;48.406;-4.514;2023-06-22T08:36:59;0.00;0.00;0.00
73749;PMS7003;62058;48.406;-4.514;2023-06-22T08:39:25;0.00;0.00;0.00
73749;PMS7003;62058;48.406;-4.514;2023-06-22T08:41:51;0.00;0.00;0.00
73749;PMS7003;62058;48.406;-4.514;2023-06-22T08:44:17;0.00;0.00;0.00
73749;PMS7003;62058;48.406;-4.514;2023-06-22T08:46:43;0.00;0.00;0.00
73749;PMS7003;62058;48.406;-4.514;2023-06-22T08:49:09;0.00;0.00;0.00
73749;PMS7003;62058;48.406;-4.514;2023-06-22T08:51:35;0.00;0.00;0.00
73749;PMS7003;62058;48.406;-4.514;2023-06-22T08:54:00;0.00;0.00;0.00
73749;PMS7003;62058;48.406;-4.514;2023-06-22T08:56:26;0.00;0.00;0.00
73749;PMS7003;62058;48.406;-4.514;2023-06-22T08:58:51;0.00;0.00;0.00
73749;PMS7003;62058;48.406;-4.514;2023-06-22T09:01:17;0.00;0.00;0.00
73749;PMS7003;62058;48.406;-4.514;2023-06-22T09:03:42;0.00;0.00;0.00
73749;PMS7003;62058;48.406;-4.514;2023-06-22T09:06:07;0.00;0.00;0.00
73749;PMS7003;62058;48.406;-4.514;2023-06-22T09:08:34;0.00;0.00;0.00
73749;PMS7003;62058;48.406;-4.514;2023-06-22T09:11:01;0.00;0.00;0.00
73749;PMS7003;62058;48.406;-4.514;2023-06-22T09:13:27;0.00;0.00;0.00
73749;PMS7003;62058;48.406;-4.514;2023-06-22T09:15:55;0.00;0.00;0.00
73749;PMS7003;62058;48.406;-4.514;2023-06-22T09:18:20;0.00;0.00;0.00
73749;PMS7003;62058;48.406;-4.514;2023-06-22T09:20:45;0.00;0.00;0.00
73749;PMS7003;62058;48.406;-4.514;2023-06-22T09:23:11;0.00;0.00;0.00
73749;PMS7003;62058;48.406;-4.514;2023-06-22T09:25:38;0.00;0.00;0.00
73749;PMS7003;62058;48.406;-4.514;2023-06-22T09:28:03;0.00;0.00;0.00
73749;PMS7003;62058;48.406;-4.514;2023-06-22T09:30:28;0.00;0.00;0.00
73749;PMS7003;62058;48.406;-4.514;2023-06-22T09:32:54;0.00;0.00;0.00
73749;PMS7003;62058;48.406;-4.514;2023-06-22T09:35:19;0.00;0.00;0.00
73749;PMS7003;62058;48.406;-4.514;2023-06-22T09:37:45;0.00;0.00;0.00
73749;PMS7003;62058;48.406;-4.514;2023-06-22T09:40:10;0.00;0.00;0.00
73749;PMS7003;62058;48.406;-4.514;2023-06-22T09:42:38;0.00;0.00;0.00
73749;PMS7003;62058;48.406;-4.514;2023-06-22T09:45:04;0.00;0.00;0.00
73749;PMS7003;62058;48.406;-4.514;2023-06-22T09:47:31;0.00;0.00;0.00
73749;PMS7003;62058;48.406;-4.514;2023-06-22T09:49:56;0.00;0.00;0.00
73749;PMS7003;62058;48.406;-4.514;2023-06-22T09:52:24;0.00;0.00;0.00
73749;PMS7003;62058;48.406;-4.514;2023-06-22T09:54:49;0.00;0.00;0.00
73749;PMS7003;62058;48.406;-4.514;2023-06-22T09:57:14;0.00;0.00;0.00
73749;PMS7003;62058;48.406;-4.514;2023-06-22T09:59:40;0.00;0.00;0.00
73749;PMS7003;62058;48.406;-4.514;2023-06-22T10:02:07;0.00;0.00;0.00
73749;PMS7003;62058;48.406;-4.514;2023-06-22T10:04:33;0.00;0.00;0.00
73749;PMS7003;62058;48.406;-4.514;2023-06-22T10:07:01;0.00;0.00;0.00
73749;PMS7003;62058;48.406;-4.514;2023-06-22T10:09:26;0.00;0.00;0.00
73749;PMS7003;62058;48.406;-4.514;2023-06-22T10:11:52;0.00;0.00;0.00
73749;PMS7003;62058;48.406;-4.514;2023-06-22T10:14:17;0.00;0.00;0.00
73749;PMS7003;62058;48.406;-4.514;2023-06-22T10:16:43;0.00;0.00;0.00
73749;PMS7003;62058;48.406;-4.514;2023-06-22T10:19:08;0.00;0.00;0.00
73749;PMS7003;62058;48.406;-4.514;2023-06-22T10:21:34;0.00;0.00;0.00
73749;PMS7003;62058;48.406;-4.514;2023-06-22T10:23:59;0.00;0.00;0.00
73749;PMS7003;62058;48.406;-4.514;2023-06-22T10:26:30;0.00;0.00;0.00
73749;PMS7003;62058;48.406;-4.514;2023-06-22T10:28:59;0.00;0.00;0.00
73749;PMS7003;62058;48.406;-4.514;2023-06-22T10:31:24;0.00;0.00;0.00
73749;PMS7003;62058;48.406;-4.514;2023-06-22T10:33:50;0.00;0.00;0.00
73749;PMS7003;62058;48.406;-4.514;2023-06-22T10:36:15;0.00;0.00;0.00
73749;PMS7003;62058;48.406;-4.514;2023-06-22T10:38:41;0.00;0.00;0.00
73749;PMS7003;62058;48.406;-4.514;2023-06-22T10:41:06;0.00;0.00;0.00
73749;PMS7003;62058;48.406;-4.514;2023-06-22T10:43:32;0.00;0.00;0.00
73749;PMS7003;62058;48.406;-4.514;2023-06-22T10:45:57;0.00;0.00;0.00
73749;PMS7003;62058;48.406;-4.514;2023-06-22T10:48:23;0.00;0.00;0.00
73749;PMS7003;62058;48.406;-4.514;2023-06-22T10:50:48;0.00;0.00;0.00
73749;PMS7003;62058;48.406;-4.514;2023-06-22T10:53:13;0.00;0.00;0.00
73749;PMS7003;62058;48.406;-4.514;2023-06-22T10:55:39;0.00;0.00;0.00
73749;PMS7003;62058;48.406;-4.514;2023-06-22T10:58:04;0.00;0.00;0.00
73749;PMS7003;62058;48.406;-4.514;2023-06-22T11:00:30;0.00;0.00;0.00
73749;PMS7003;62058;48.406;-4.514;2023-06-22T11:02:55;0.00;0.00;0.00
73749;PMS7003;62058;48.406;-4.514;2023-06-22T11:05:20;0.00;0.00;0.00
73749;PMS7003;62058;48.406;-4.514;2023-06-22T11:07:46;0.00;0.00;0.00
73749;PMS7003;62058;48.406;-4.514;2023-06-22T11:10:12;0.00;0.00;0.00
73749;PMS7003;62058;48.406;-4.514;2023-06-22T11:12:38;0.00;0.00;0.00
73749;PMS7003;62058;48.406;-4.514;2023-06-22T11:15:03;0.00;0.00;0.00
73749;PMS7003;62058;48.406;-4.514;2023-06-22T11:17:29;0.00;0.00;0.00
73749;PMS7003;62058;48.406;-4.514;2023-06-22T11:19:54;0.00;0.00;0.00
73749;PMS7003;62058;48.406;-4.514;2023-06-22T11:22:20;0.00;0.00;0.00
73749;PMS7003;62058;48.406;-4.514;2023-06-22T11:24:45;0.00;0.00;0.00
73749;PMS7003;62058;48.406;-4.514;2023-06-22T11:27:11;0.00;0.00;0.00
73749;PMS7003;62058;48.406;-4.514;2023-06-22T11:29:36;0.00;0.00;0.00
73749;PMS7003;62058;48.406;-4.514;2023-06-22T11:32:03;0.00;0.00;0.00
73749;PMS7003;62058;48.406;-4.514;2023-06-22T11:34:29;0.00;0.00;0.00
73749;PMS7003;62058;48.406;-4.514;2023-06-22T11:36:55;0.00;0.00;0.00
73749;PMS7003;62058;48.406;-4.514;2023-06-22T11:39:20;0.00;0.00;0.00
73749;PMS7003;62058;48.406;-4.514;2023-06-22T11:41:45;0.00;0.00;0.00
73749;PMS7003;62058;48.406;-4.514;2023-06-22T11:44:11;0.00;0.00;0.00
73749;PMS7003;62058;48.406;-4.514;2023-06-22T11:46:36;0.00;0.00;0.00
73749;PMS7003;62058;48.406;-4.514;2023-06-22T11:49:02;0.00;0.00;0.00
73749;PMS7003;62058;48.406;-4.514;2023-06-22T11:51:27;0.00;0.00;0.00
73749;PMS7003;62058;48.406;-4.514;2023-06-22T11:53:53;0.00;0.00;0.00
73749;PMS7003;62058;48.406;-4.514;2023-06-22T11:56:18;0.00;0.00;0.00
73749;PMS7003;62058;48.406;-4.514;2023-06-22T11:58:44;0.00;0.00;0.00
73749;PMS7003;62058;48.406;-4.514;2023-06-22T12:01:09;0.00;0.00;0.00
73749;PMS7003;62058;48.406;-4.514;2023-06-22T12:03:35;0.00;0.00;0.00
73749;PMS7003;62058;48.406;-4.514;2023-06-22T12:06:00;0.00;0.00;0.00
73749;PMS7003;62058;48.406;-4.514;2023-06-22T12:08:25;0.00;0.00;0.00
73749;PMS7003;62058;48.406;-4.514;2023-06-22T12:10:51;0.00;0.00;0.00
73749;PMS7003;62058;48.406;-4.514;2023-06-22T12:13:16;0.00;0.00;0.00
73749;PMS7003;62058;48.406;-4.514;2023-06-22T12:15:42;0.00;0.00;0.00
73749;PMS7003;62058;48.406;-4.514;2023-06-22T12:18:07;0.00;0.00;0.00
73749;PMS7003;62058;48.406;-4.514;2023-06-22T12:20:34;0.00;0.00;0.00
73749;PMS7003;62058;48.406;-4.514;2023-06-22T12:22:59;0.00;0.00;0.00
73749;PMS7003;62058;48.406;-4.514;2023-06-22T12:25:25;0.00;0.00;0.00
73749;PMS7003;62058;48.406;-4.514;2023-06-22T12:27:50;0.00;0.00;0.00
73749;PMS7003;62058;48.406;-4.514;2023-06-22T12:30:15;0.00;0.00;0.00
73749;PMS7003;62058;48.406;-4.514;2023-06-22T12:32:41;0.00;0.00;0.00
73749;PMS7003;62058;48.406;-4.514;2023-06-22T12:35:07;0.00;0.00;0.00
73749;PMS7003;62058;48.406;-4.514;2023-06-22T12:37:37;0.00;0.00;0.00
73749;PMS7003;62058;48.406;-4.514;2023-06-22T12:40:02;0.00;0.00;0.00
73749;PMS7003;62058;48.406;-4.514;2023-06-22T12:42:29;0.00;0.00;0.00
73749;PMS7003;62058;48.406;-4.514;2023-06-22T12:44:54;0.00;0.00;0.00
73749;PMS7003;62058;48.406;-4.514;2023-06-22T12:47:19;0.00;0.00;0.00
73749;PMS7003;62058;48.406;-4.514;2023-06-22T12:49:45;0.00;0.00;0.00
73749;PMS7003;62058;48.406;-4.514;2023-06-22T12:52:10;0.00;0.00;0.00
73749;PMS7003;62058;48.406;-4.514;2023-06-22T12:54:36;0.00;0.00;0.00
73749;PMS7003;62058;48.406;-4.514;2023-06-22T12:57:02;0.00;0.00;0.00
73749;PMS7003;62058;48.406;-4.514;2023-06-22T12:59:27;0.00;0.00;0.00
73749;PMS7003;62058;48.406;-4.514;2023-06-22T13:01:52;0.00;0.00;0.00
73749;PMS7003;62058;48.406;-4.514;2023-06-22T13:04:18;0.00;0.00;0.00
73749;PMS7003;62058;48.406;-4.514;2023-06-22T13:06:46;0.00;0.00;0.00
73749;PMS7003;62058;48.406;-4.514;2023-06-22T13:09:13;0.00;0.00;0.00
73749;PMS7003;62058;48.406;-4.514;2023-06-22T13:11:40;0.00;0.00;0.00
73749;PMS7003;62058;48.406;-4.514;2023-06-22T13:14:05;0.00;0.00;0.00
73749;PMS7003;62058;48.406;-4.514;2023-06-22T13:16:30;0.00;0.00;0.00
73749;PMS7003;62058;48.406;-4.514;2023-06-22T13:18:56;0.00;0.00;0.00
73749;PMS7003;62058;48.406;-4.514;2023-06-22T13:21:21;0.00;0.00;0.00
73749;PMS7003;62058;48.406;-4.514;2023-06-22T13:23:47;0.00;0.00;0.00
73749;PMS7003;62058;48.406;-4.514;2023-06-22T13:26:12;0.00;0.00;0.00
73749;PMS7003;62058;48.406;-4.514;2023-06-22T13:28:38;0.00;0.00;0.00
73749;PMS7003;62058;48.406;-4.514;2023-06-22T13:31:03;0.00;0.00;0.00
73749;PMS7003;62058;48.406;-4.514;2023-06-22T13:33:28;0.00;0.00;0.00
73749;PMS7003;62058;48.406;-4.514;2023-06-22T13:35:54;0.00;0.00;0.00
73749;PMS7003;62058;48.406;-4.514;2023-06-22T13:38:19;0.00;0.00;0.00
73749;PMS7003;62058;48.406;-4.514;2023-06-22T13:40:44;0.00;0.00;0.00
73749;PMS7003;62058;48.406;-4.514;2023-06-22T13:43:10;0.00;0.00;0.00
73749;PMS7003;62058;48.406;-4.514;2023-06-22T13:45:35;0.00;0.00;0.00
73749;PMS7003;62058;48.406;-4.514;2023-06-22T13:48:01;0.00;0.00;0.00
73749;PMS7003;62058;48.406;-4.514;2023-06-22T13:50:27;0.00;0.00;0.00
73749;PMS7003;62058;48.406;-4.514;2023-06-22T13:52:54;0.00;0.00;0.00
73749;PMS7003;62058;48.406;-4.514;2023-06-22T13:55:19;0.00;0.00;0.00
73749;PMS7003;62058;48.406;-4.514;2023-06-22T13:57:46;0.00;0.00;0.00
73749;PMS7003;62058;48.406;-4.514;2023-06-22T14:00:11;63.25;56.50;53.75
73749;PMS7003;62058;48.406;-4.514;2023-06-22T14:02:37;125.20;125.20;125.00
73749;PMS7003;62058;48.406;-4.514;2023-06-22T14:05:04;93.60;93.60;93.60
73749;PMS7003;62058;48.406;-4.514;2023-06-22T14:07:30;127.00;127.00;127.00
73749;PMS7003;62058;48.406;-4.514;2023-06-22T14:09:56;130.83;130.83;130.67
73749;PMS7003;62058;48.406;-4.514;2023-06-22T14:12:22;136.20;135.40;135.40
73749;PMS7003;62058;48.406;-4.514;2023-06-22T14:14:48;159.25;159.25;159.25
73749;PMS7003;62058;48.406;-4.514;2023-06-22T14:17:13;155.25;154.50;154.00
73749;PMS7003;62058;48.406;-4.514;2023-06-22T14:19:38;154.33;153.00;152.67
73749;PMS7003;62058;48.406;-4.514;2023-06-22T14:22:04;152.00;152.00;151.75
73749;PMS7003;62058;48.406;-4.514;2023-06-22T14:24:29;154.60;154.60;153.80
73749;PMS7003;62058;48.406;-4.514;2023-06-22T14:26:55;146.50;146.50;145.75
73749;PMS7003;62058;48.406;-4.514;2023-06-22T14:29:21;143.00;142.25;142.25
73749;PMS7003;62058;48.406;-4.514;2023-06-22T14:31:47;161.40;161.40;161.40
73749;PMS7003;62058;48.406;-4.514;2023-06-22T14:34:13;159.60;159.60;159.60
73749;PMS7003;62058;48.406;-4.514;2023-06-22T14:36:38;159.67;159.67;159.67
73749;PMS7003;62058;48.406;-4.514;2023-06-22T14:39:03;158.25;158.25;158.25
73749;PMS7003;62058;48.406;-4.514;2023-06-22T14:41:29;151.00;150.00;149.75
73749;PMS7003;62058;48.406;-4.514;2023-06-22T14:43:55;150.20;150.20;149.80
73749;PMS7003;62058;48.406;-4.514;2023-06-22T14:46:21;152.00;152.00;152.00
73749;PMS7003;62058;48.406;-4.514;2023-06-22T14:48:46;149.75;149.00;148.75
73749;PMS7003;62058;48.406;-4.514;2023-06-22T14:51:11;143.75;143.75;143.75
73749;PMS7003;62058;48.406;-4.514;2023-06-22T14:53:37;164.20;164.20;163.80
73749;PMS7003;62058;48.406;-4.514;2023-06-22T14:56:03;164.60;164.60;164.60
73749;PMS7003;62058;48.406;-4.514;2023-06-22T14:58:32;151.83;151.83;151.67